Main page
METAR-TAF:

METAR-TAF

Airports :

Sialkot International Airport

Sialkot, Pakistan

latitude: 32-32N, longitude: 74-22E, elevation: 255 m

Current weather observation

The report was made 15 minutes ago, at 14:00 UTC
Calm wind
Temperature 33°C
Humidity 56%
Pressure 1000 hPa
Visibility: 4000 m
smoke

METAR: OPST 211400Z 00000KT 4000 FU NSC 33/23 Q1000 NOSIG RH58

Time: 19:15 (14:15 UTC)

Forecast

The report was made 4 hours and 30 minutes ago, at 09:45 UTC
Forecast valid from 21 at 12 UTC to 22 at 18 UTC
Wind 4 kt from the Northeast
Visibility: 4000 m
smoke
Temporary
from 21 at 23 UTC to 22 at 04 UTC
Wind 3 kt from variable directions
Visibility: 1500 m
mist

TAF: OPST 210945Z 2112/2218 05004KT 4000 FU NSC TX38/2210Z TN26/2200Z TEMPO 2123/2204 VRB03KT 1500 BR

Weather observations and forecasts of more than 4000 airports (METAR and TAF reports).

The available stations are represented by yellow and red dots on the map.

Hover mouse over dot to see the name of the station.

Then click to see weather observations and forecasts.

To change the map : click on the green buttons with a black cross to zoom in, on the green button with a dash to zoom out, or on the green arrows for adjacent maps.


METAR-TAF: